sensor_id;sensor_type;location;lat;lon;timestamp;pressure;altitude;pressure_sealevel;temperature;humidity
70684;BME280;58263;48.146;11.440;2023-02-13T00:02:20;97520.78;;;2.76;78.55
70684;BME280;58263;48.146;11.440;2023-02-13T00:04:45;97524.41;;;2.75;78.80
70684;BME280;58263;48.146;11.440;2023-02-13T00:07:11;97518.53;;;2.71;78.71
70684;BME280;58263;48.146;11.440;2023-02-13T00:09:37;97521.88;;;2.63;78.93
70684;BME280;58263;48.146;11.440;2023-02-13T00:12:03;97511.56;;;2.70;78.80
70684;BME280;58263;48.146;11.440;2023-02-13T00:14:29;97515.63;;;2.74;78.60
70684;BME280;58263;48.146;11.440;2023-02-13T00:16:54;97512.09;;;2.64;79.08
70684;BME280;58263;48.146;11.440;2023-02-13T00:19:19;97506.38;;;2.68;78.91
70684;BME280;58263;48.146;11.440;2023-02-13T00:21:45;97505.69;;;2.66;78.90
70684;BME280;58263;48.146;11.440;2023-02-13T00:24:10;97499.00;;;2.62;79.20
70684;BME280;58263;48.146;11.440;2023-02-13T00:26:35;97501.50;;;2.64;79.00
70684;BME280;58263;48.146;11.440;2023-02-13T00:29:01;97504.84;;;2.56;79.19
70684;BME280;58263;48.146;11.440;2023-02-13T00:31:26;97488.13;;;2.56;79.38
70684;BME280;58263;48.146;11.440;2023-02-13T00:33:51;97491.50;;;2.67;78.80
70684;BME280;58263;48.146;11.440;2023-02-13T00:36:19;97496.72;;;2.48;79.68
70684;BME280;58263;48.146;11.440;2023-02-13T00:38:45;97488.94;;;2.56;79.48
70684;BME280;58263;48.146;11.440;2023-02-13T00:41:12;97496.03;;;2.46;79.75
70684;BME280;58263;48.146;11.440;2023-02-13T00:43:37;97491.03;;;2.52;79.61
70684;BME280;58263;48.146;11.440;2023-02-13T00:46:04;97497.31;;;2.61;79.39
70684;BME280;58263;48.146;11.440;2023-02-13T00:48:31;97486.44;;;2.64;79.51
70684;BME280;58263;48.146;11.440;2023-02-13T00:50:56;97490.78;;;2.65;79.67
70684;BME280;58263;48.146;11.440;2023-02-13T00:53:23;97484.78;;;2.63;79.64
70684;BME280;58263;48.146;11.440;2023-02-13T00:55:50;97490.63;;;2.67;79.88
70684;BME280;58263;48.146;11.440;2023-02-13T00:58:16;97488.94;;;2.56;80.61
70684;BME280;58263;48.146;11.440;2023-02-13T01:00:42;97491.75;;;2.64;80.19
70684;BME280;58263;48.146;11.440;2023-02-13T01:03:08;97486.59;;;2.63;80.28
70684;BME280;58263;48.146;11.440;2023-02-13T01:05:34;97487.59;;;2.72;80.08
70684;BME280;58263;48.146;11.440;2023-02-13T01:08:00;97484.94;;;2.72;80.12
70684;BME280;58263;48.146;11.440;2023-02-13T01:10:25;97486.19;;;2.77;80.04
70684;BME280;58263;48.146;11.440;2023-02-13T01:12:51;97486.19;;;2.77;79.98
70684;BME280;58263;48.146;11.440;2023-02-13T01:15:17;97491.50;;;2.77;80.40
70684;BME280;58263;48.146;11.440;2023-02-13T01:17:42;97489.94;;;2.75;80.51
70684;BME280;58263;48.146;11.440;2023-02-13T01:20:10;97483.13;;;2.72;80.38
70684;BME280;58263;48.146;11.440;2023-02-13T01:22:35;97484.09;;;2.71;80.70
70684;BME280;58263;48.146;11.440;2023-02-13T01:25:01;97484.22;;;2.69;80.60
70684;BME280;58263;48.146;11.440;2023-02-13T01:27:27;97485.75;;;2.72;80.78
70684;BME280;58263;48.146;11.440;2023-02-13T01:29:53;97481.72;;;2.68;80.85
70684;BME280;58263;48.146;11.440;2023-02-13T01:32:18;97482.53;;;2.68;81.19
70684;BME280;58263;48.146;11.440;2023-02-13T01:34:43;97481.84;;;2.66;81.20
70684;BME280;58263;48.146;11.440;2023-02-13T01:37:09;97478.63;;;2.73;81.11
70684;BME280;58263;48.146;11.440;2023-02-13T01:39:34;97474.34;;;2.72;81.00
70684;BME280;58263;48.146;11.440;2023-02-13T01:41:59;97486.88;;;2.69;81.21
70684;BME280;58263;48.146;11.440;2023-02-13T01:44:50;97486.19;;;2.67;81.39
70684;BME280;58263;48.146;11.440;2023-02-13T01:47:46;97483.78;;;2.64;81.45
70684;BME280;58263;48.146;11.440;2023-02-13T01:52:52;97482.13;;;2.63;81.55
70684;BME280;58263;48.146;11.440;2023-02-13T01:55:19;97476.56;;;2.66;81.50
70684;BME280;58263;48.146;11.440;2023-02-13T01:57:50;97483.41;;;2.69;81.52
70684;BME280;58263;48.146;11.440;2023-02-13T02:00:17;97484.22;;;2.69;81.28
70684;BME280;58263;48.146;11.440;2023-02-13T02:02:48;97486.59;;;2.63;81.43
70684;BME280;58263;48.146;11.440;2023-02-13T02:05:17;97483.25;;;2.70;80.91
70684;BME280;58263;48.146;11.440;2023-02-13T02:07:44;97478.25;;;2.67;80.94
70684;BME280;58263;48.146;11.440;2023-02-13T02:10:13;97479.78;;;2.70;80.73
70684;BME280;58263;48.146;11.440;2023-02-13T02:12:48;97478.50;;;2.64;80.98
70684;BME280;58263;48.146;11.440;2023-02-13T02:15:16;97485.34;;;2.67;80.54
70684;BME280;58263;48.146;11.440;2023-02-13T02:17:41;97489.25;;;2.73;80.41
70684;BME280;58263;48.146;11.440;2023-02-13T02:47:51;97489.53;;;2.69;80.62
70684;BME280;58263;48.146;11.440;2023-02-13T02:56:26;97481.88;;;2.76;79.72
70684;BME280;58263;48.146;11.440;2023-02-13T02:59:09;97489.25;;;2.73;80.28
70684;BME280;58263;48.146;11.440;2023-02-13T03:01:54;97483.94;;;2.73;80.33
70684;BME280;58263;48.146;11.440;2023-02-13T03:04:42;97483.78;;;2.64;80.53
70684;BME280;58263;48.146;11.440;2023-02-13T03:07:27;97489.25;;;2.73;80.20
70684;BME280;58263;48.146;11.440;2023-02-13T03:09:56;97485.34;;;2.77;80.03
70684;BME280;58263;48.146;11.440;2023-02-13T03:12:47;97482.00;;;2.75;80.12
70684;BME280;58263;48.146;11.440;2023-02-13T03:15:35;97483.25;;;2.70;79.98
70684;BME280;58263;48.146;11.440;2023-02-13T03:18:21;97480.03;;;2.67;80.19
70684;BME280;58263;48.146;11.440;2023-02-13T03:21:15;97489.53;;;2.69;79.89
70684;BME280;58263;48.146;11.440;2023-02-13T03:24:06;97483.13;;;2.72;79.76
70684;BME280;58263;48.146;11.440;2023-02-13T03:26:44;97484.22;;;2.69;79.70
70684;BME280;58263;48.146;11.440;2023-02-13T03:29:55;97489.38;;;2.71;79.70
70684;BME280;58263;48.146;11.440;2023-02-13T03:32:46;97495.09;;;2.66;79.76
70684;BME280;58263;48.146;11.440;2023-02-13T03:35:33;97493.44;;;2.75;79.65
70684;BME280;58263;48.146;11.440;2023-02-13T03:38:26;97499.72;;;2.74;79.75
70684;BME280;58263;48.146;11.440;2023-02-13T03:40:58;97492.31;;;2.68;79.97
70684;BME280;58263;48.146;11.440;2023-02-13T03:46:30;97498.19;;;2.72;79.78
70684;BME280;58263;48.146;11.440;2023-02-13T03:48:58;97506.81;;;2.74;79.42
70684;BME280;58263;48.146;11.440;2023-02-13T03:51:49;97498.59;;;2.77;79.36
70684;BME280;58263;48.146;11.440;2023-02-13T03:54:22;97497.91;;;2.75;79.48
70684;BME280;58263;48.146;11.440;2023-02-13T03:57:09;97501.25;;;2.77;79.04
70684;BME280;58263;48.146;11.440;2023-02-13T03:59:56;97501.94;;;2.79;78.59
70684;BME280;58263;48.146;11.440;2023-02-13T04:02:24;97501.53;;;2.74;78.72
70684;BME280;58263;48.146;11.440;2023-02-13T04:05:00;97492.31;;;2.68;78.77
70684;BME280;58263;48.146;11.440;2023-02-13T04:07:28;97503.47;;;2.72;78.94
70684;BME280;58263;48.146;11.440;2023-02-13T04:10:02;97500.41;;;2.66;79.05
70684;BME280;58263;48.146;11.440;2023-02-13T04:12:36;97504.03;;;2.65;79.51
70684;BME280;58263;48.146;11.440;2023-02-13T04:15:16;97504.03;;;2.65;79.29
70684;BME280;58263;48.146;11.440;2023-02-13T04:17:51;97508.72;;;2.52;80.03
70684;BME280;58263;48.146;11.440;2023-02-13T04:20:18;97508.69;;;2.42;80.21
70684;BME280;58263;48.146;11.440;2023-02-13T04:22:45;97503.66;;;2.29;80.92
70684;BME280;58263;48.146;11.440;2023-02-13T04:25:13;97509.81;;;2.40;80.09
70684;BME280;58263;48.146;11.440;2023-02-13T04:27:39;97516.19;;;2.27;80.57
70684;BME280;58263;48.146;11.440;2023-02-13T04:30:05;97505.13;;;2.12;81.05
70684;BME280;58263;48.146;11.440;2023-02-13T04:32:30;97513.47;;;2.08;80.86
70684;BME280;58263;48.146;11.440;2023-02-13T04:34:56;97507.72;;;2.33;79.71
70684;BME280;58263;48.146;11.440;2023-02-13T04:37:21;97511.78;;;2.38;79.40
70684;BME280;58263;48.146;11.440;2023-02-13T04:39:46;97501.19;;;2.38;79.49
70684;BME280;58263;48.146;11.440;2023-02-13T04:42:11;97505.22;;;2.42;79.24
70684;BME280;58263;48.146;11.440;2023-02-13T04:44:37;97504.94;;;2.35;79.95
70684;BME280;58263;48.146;11.440;2023-02-13T04:47:02;97506.44;;;2.28;80.22
70684;BME280;58263;48.146;11.440;2023-02-13T04:49:27;97496.41;;;2.31;80.33
70684;BME280;58263;48.146;11.440;2023-02-13T04:51:53;97503.38;;;2.32;80.05
70684;BME280;58263;48.146;11.440;2023-02-13T04:54:18;97508.41;;;2.35;79.56
70684;BME280;58263;48.146;11.440;2023-02-13T04:56:43;97505.31;;;2.30;79.77
70684;BME280;58263;48.146;11.440;2023-02-13T04:59:08;97500.72;;;2.23;80.23
70684;BME280;58263;48.146;11.440;2023-02-13T05:01:34;97509.66;;;2.31;79.54
70684;BME280;58263;48.146;11.440;2023-02-13T05:03:59;97502.91;;;2.17;80.21
70684;BME280;58263;48.146;11.440;2023-02-13T05:06:24;97512.28;;;2.22;80.32
70684;BME280;58263;48.146;11.440;2023-02-13T05:08:50;97513.63;;;2.06;80.84
70684;BME280;58263;48.146;11.440;2023-02-13T05:11:15;97509.72;;;2.10;80.97
70684;BME280;58263;48.146;11.440;2023-02-13T05:13:40;97510.28;;;2.14;80.34
70684;BME280;58263;48.146;11.440;2023-02-13T05:16:06;97519.75;;;2.16;80.06
70684;BME280;58263;48.146;11.440;2023-02-13T05:18:31;97514.75;;;2.13;79.93
70684;BME280;58263;48.146;11.440;2023-02-13T05:20:56;97509.41;;;2.03;80.04
70684;BME280;58263;48.146;11.440;2023-02-13T05:23:40;97511.00;;;2.16;79.77
70684;BME280;58263;48.146;11.440;2023-02-13T05:26:06;97513.41;;;2.29;79.42
70684;BME280;58263;48.146;11.440;2023-02-13T05:28:31;97510.75;;;2.29;78.83
70684;BME280;58263;48.146;11.440;2023-02-13T05:31:15;97505.44;;;2.19;79.67
70684;BME280;58263;48.146;11.440;2023-02-13T05:33:41;97516.72;;;2.21;79.56
70684;BME280;58263;48.146;11.440;2023-02-13T05:36:06;97514.59;;;2.15;79.71
70684;BME280;58263;48.146;11.440;2023-02-13T05:38:32;97514.72;;;2.03;80.10
70684;BME280;58263;48.146;11.440;2023-02-13T05:40:58;97516.91;;;1.98;80.41
70684;BME280;58263;48.146;11.440;2023-02-13T05:43:25;97522.34;;;1.97;79.85
70684;BME280;58263;48.146;11.440;2023-02-13T05:45:50;97529.78;;;1.82;80.66
70684;BME280;58263;48.146;11.440;2023-02-13T05:48:16;97524.50;;;1.82;80.43
70684;BME280;58263;48.146;11.440;2023-02-13T05:50:42;97526.91;;;1.95;80.08
70684;BME280;58263;48.146;11.440;2023-02-13T05:53:07;97532.47;;;1.92;80.32
70684;BME280;58263;48.146;11.440;2023-02-13T05:55:32;97534.34;;;1.80;80.66
70684;BME280;58263;48.146;11.440;2023-02-13T05:57:57;97543.28;;;1.79;80.60
70684;BME280;58263;48.146;11.440;2023-02-13T06:00:23;97541.72;;;1.76;80.69
70684;BME280;58263;48.146;11.440;2023-02-13T06:02:49;97542.03;;;1.83;80.45
70684;BME280;58263;48.146;11.440;2023-02-13T06:05:14;97532.44;;;1.82;80.34
70684;BME280;58263;48.146;11.440;2023-02-13T06:07:42;97537.66;;;1.72;80.61
70684;BME280;58263;48.146;11.440;2023-02-13T06:10:08;97540.94;;;1.64;81.13
70684;BME280;58263;48.146;11.440;2023-02-13T06:12:33;97547.19;;;1.63;80.76
70684;BME280;58263;48.146;11.440;2023-02-13T06:14:58;97553.28;;;1.54;81.33
70684;BME280;58263;48.146;11.440;2023-02-13T06:17:24;97549.41;;;1.58;81.22
70684;BME280;58263;48.146;11.440;2023-02-13T06:19:49;97549.09;;;1.51;81.42
70684;BME280;58263;48.146;11.440;2023-02-13T06:22:14;97551.63;;;1.42;81.83
70684;BME280;58263;48.146;11.440;2023-02-13T06:24:40;97551.63;;;1.42;81.62
70684;BME280;58263;48.146;11.440;2023-02-13T06:27:05;97559.00;;;1.38;82.14
70684;BME280;58263;48.146;11.440;2023-02-13T06:29:30;97550.81;;;1.41;82.06
70684;BME280;58263;48.146;11.440;2023-02-13T06:31:57;97560.78;;;1.38;82.19
70684;BME280;58263;48.146;11.440;2023-02-13T06:34:22;97562.03;;;1.55;81.57
70684;BME280;58263;48.146;11.440;2023-02-13T06:36:47;97561.28;;;1.64;80.85
70684;BME280;58263;48.146;11.440;2023-02-13T06:39:13;97557.09;;;1.61;81.04
70684;BME280;58263;48.146;11.440;2023-02-13T06:41:38;97563.34;;;1.60;81.44
70684;BME280;58263;48.146;11.440;2023-02-13T06:44:04;97560.44;;;1.63;81.17
70684;BME280;58263;48.146;11.440;2023-02-13T06:46:29;97559.34;;;1.66;81.41
70684;BME280;58263;48.146;11.440;2023-02-13T06:48:55;97561.00;;;1.67;81.25
70684;BME280;58263;48.146;11.440;2023-02-13T06:51:20;97565.22;;;1.69;81.15
70684;BME280;58263;48.146;11.440;2023-02-13T06:53:45;97568.56;;;1.72;81.22
70684;BME280;58263;48.146;11.440;2023-02-13T06:56:10;97573.28;;;1.68;81.65
70684;BME280;58263;48.146;11.440;2023-02-13T06:58:36;97575.19;;;1.66;81.64
70684;BME280;58263;48.146;11.440;2023-02-13T07:01:04;97577.78;;;1.56;81.80
70684;BME280;58263;48.146;11.440;2023-02-13T07:03:29;97588.84;;;1.50;82.14
70684;BME280;58263;48.146;11.440;2023-02-13T07:05:54;97584.75;;;1.57;81.80
70684;BME280;58263;48.146;11.440;2023-02-13T07:08:20;97588.22;;;1.58;81.77
70684;BME280;58263;48.146;11.440;2023-02-13T07:10:46;97582.13;;;1.57;81.58
70684;BME280;58263;48.146;11.440;2023-02-13T07:13:11;97594.13;;;1.61;81.22
70684;BME280;58263;48.146;11.440;2023-02-13T07:15:37;97592.75;;;1.67;80.83
70684;BME280;58263;48.146;11.440;2023-02-13T07:18:03;97601.16;;;1.72;80.79
70684;BME280;58263;48.146;11.440;2023-02-13T07:20:28;97593.91;;;1.74;80.92
70684;BME280;58263;48.146;11.440;2023-02-13T07:22:58;97604.44;;;1.64;81.14
70684;BME280;58263;48.146;11.440;2023-02-13T07:25:24;97596.50;;;1.64;80.84
70684;BME280;58263;48.146;11.440;2023-02-13T07:27:49;97599.00;;;1.66;81.05
70684;BME280;58263;48.146;11.440;2023-02-13T07:30:14;97600.16;;;1.52;81.31
70684;BME280;58263;48.146;11.440;2023-02-13T07:32:40;97596.44;;;1.76;81.06
70684;BME280;58263;48.146;11.440;2023-02-13T07:35:05;97599.53;;;1.81;80.25
70684;BME280;58263;48.146;11.440;2023-02-13T07:37:31;97605.22;;;1.76;80.63
70684;BME280;58263;48.146;11.440;2023-02-13T07:39:56;97606.03;;;1.77;80.63
70684;BME280;58263;48.146;11.440;2023-02-13T07:42:22;97606.63;;;1.80;80.71
70684;BME280;58263;48.146;11.440;2023-02-13T07:44:47;97613.38;;;1.73;80.97
70684;BME280;58263;48.146;11.440;2023-02-13T07:47:12;97612.56;;;1.73;80.85
70684;BME280;58263;48.146;11.440;2023-02-13T07:49:38;97621.78;;;1.78;80.41
70684;BME280;58263;48.146;11.440;2023-02-13T07:52:04;97619.00;;;1.80;80.74
70684;BME280;58263;48.146;11.440;2023-02-13T07:54:30;97619.94;;;1.90;80.11
70684;BME280;58263;48.146;11.440;2023-02-13T07:56:56;97632.38;;;1.78;80.49
70684;BME280;58263;48.146;11.440;2023-02-13T07:59:21;97625.47;;;1.87;79.94
70684;BME280;58263;48.146;11.440;2023-02-13T08:01:46;97631.66;;;1.97;79.86
70684;BME280;58263;48.146;11.440;2023-02-13T08:04:11;97625.13;;;2.01;79.75
70684;BME280;58263;48.146;11.440;2023-02-13T08:06:41;97632.31;;;2.11;79.35
70684;BME280;58263;48.146;11.440;2023-02-13T08:09:07;97624.81;;;2.16;78.96
70684;BME280;58263;48.146;11.440;2023-02-13T08:11:59;97632.56;;;2.08;79.86
70684;BME280;58263;48.146;11.440;2023-02-13T08:14:26;97634.13;;;2.10;80.19
70684;BME280;58263;48.146;11.440;2023-02-13T08:16:52;97628.16;;;2.18;79.73
70684;BME280;58263;48.146;11.440;2023-02-13T08:19:18;97632.03;;;2.14;79.69
70684;BME280;58263;48.146;11.440;2023-02-13T08:21:44;97636.56;;;2.23;79.55
70684;BME280;58263;48.146;11.440;2023-02-13T08:24:09;97633.22;;;2.21;79.37
70684;BME280;58263;48.146;11.440;2023-02-13T08:26:35;97627.59;;;2.14;79.16
70684;BME280;58263;48.146;11.440;2023-02-13T08:29:02;97626.25;;;2.20;79.43
70684;BME280;58263;48.146;11.440;2023-02-13T08:31:27;97624.19;;;2.02;79.85
70684;BME280;58263;48.146;11.440;2023-02-13T08:33:54;97621.41;;;2.04;79.46
70684;BME280;58263;48.146;11.440;2023-02-13T08:36:19;97629.97;;;1.96;80.37
70684;BME280;58263;48.146;11.440;2023-02-13T08:38:45;97622.94;;;2.07;79.55
70684;BME280;58263;48.146;11.440;2023-02-13T08:41:11;97629.56;;;2.22;79.35
70684;BME280;58263;48.146;11.440;2023-02-13T08:43:37;97620.41;;;2.26;79.60
70684;BME280;58263;48.146;11.440;2023-02-13T08:46:02;97623.78;;;2.28;79.42
70684;BME280;58263;48.146;11.440;2023-02-13T08:48:28;97625.47;;;2.29;79.40
70684;BME280;58263;48.146;11.440;2023-02-13T08:50:53;97623.81;;;2.38;78.94
70684;BME280;58263;48.146;11.440;2023-02-13T08:53:19;97619.00;;;2.22;79.18
70684;BME280;58263;48.146;11.440;2023-02-13T08:55:52;97627.38;;;2.27;79.20
70684;BME280;58263;48.146;11.440;2023-02-13T08:58:18;97617.69;;;2.38;79.00
70684;BME280;58263;48.146;11.440;2023-02-13T09:00:43;97626.00;;;2.33;78.93
70684;BME280;58263;48.146;11.440;2023-02-13T09:03:08;97617.41;;;2.41;78.37
70684;BME280;58263;48.146;11.440;2023-02-13T09:05:34;97626.09;;;2.43;78.33
70684;BME280;58263;48.146;11.440;2023-02-13T09:08:00;97631.91;;;2.36;78.40
70684;BME280;58263;48.146;11.440;2023-02-13T09:10:27;97633.97;;;2.33;78.23
70684;BME280;58263;48.146;11.440;2023-02-13T09:12:53;97628.81;;;2.31;78.48
70684;BME280;58263;48.146;11.440;2023-02-13T09:15:18;97630.47;;;2.32;78.54
70684;BME280;58263;48.146;11.440;2023-02-13T09:17:43;97641.59;;;2.57;77.52
70684;BME280;58263;48.146;11.440;2023-02-13T09:20:09;97637.81;;;2.50;77.32
70684;BME280;58263;48.146;11.440;2023-02-13T09:22:36;97639.97;;;2.35;78.01
70684;BME280;58263;48.146;11.440;2023-02-13T09:25:02;97648.09;;;2.43;77.93
70684;BME280;58263;48.146;11.440;2023-02-13T09:27:28;97647.47;;;2.30;78.26
70684;BME280;58263;48.146;11.440;2023-02-13T09:29:54;97643.72;;;2.32;78.56
70684;BME280;58263;48.146;11.440;2023-02-13T09:32:19;97645.03;;;2.48;78.03
70684;BME280;58263;48.146;11.440;2023-02-13T09:34:45;97642.53;;;2.46;77.71
70684;BME280;58263;48.146;11.440;2023-02-13T09:37:10;97647.13;;;2.44;77.81
70684;BME280;58263;48.146;11.440;2023-02-13T09:39:35;97643.13;;;2.50;77.71
70684;BME280;58263;48.146;11.440;2023-02-13T09:42:01;97638.16;;;2.66;77.47
70684;BME280;58263;48.146;11.440;2023-02-13T09:44:40;97631.50;;;2.72;77.83
70684;BME280;58263;48.146;11.440;2023-02-13T09:47:30;97633.03;;;2.75;77.72
70684;BME280;58263;48.146;11.440;2023-02-13T09:50:16;97629.16;;;2.79;77.30
70684;BME280;58263;48.146;11.440;2023-02-13T09:52:44;97633.63;;;2.88;76.96
70684;BME280;58263;48.146;11.440;2023-02-13T09:55:20;97632.22;;;2.84;76.90
70684;BME280;58263;48.146;11.440;2023-02-13T09:58:42;97638.53;;;2.93;76.81
70684;BME280;58263;48.146;11.440;2023-02-13T10:01:22;97639.91;;;2.87;76.94
70684;BME280;58263;48.146;11.440;2023-02-13T10:03:57;97638.66;;;2.91;77.08
70684;BME280;58263;48.146;11.440;2023-02-13T10:06:36;97645.53;;;3.03;76.87
70684;BME280;58263;48.146;11.440;2023-02-13T10:17:58;97644.72;;;3.13;76.15
70684;BME280;58263;48.146;11.440;2023-02-13T10:20:37;97642.72;;;2.95;76.12
70684;BME280;58263;48.146;11.440;2023-02-13T10:23:35;97639.41;;;3.13;75.72
70684;BME280;58263;48.146;11.440;2023-02-13T10:26:27;97639.78;;;2.98;76.53
70684;BME280;58263;48.146;11.440;2023-02-13T10:29:13;97633.25;;;3.02;76.33
70684;BME280;58263;48.146;11.440;2023-02-13T10:32:01;97637.69;;;2.92;76.89
70684;BME280;58263;48.146;11.440;2023-02-13T10:34:34;97639.28;;;3.14;75.73
70684;BME280;58263;48.146;11.440;2023-02-13T10:37:02;97631.03;;;3.08;75.87
70684;BME280;58263;48.146;11.440;2023-02-13T10:39:29;97633.69;;;3.17;75.48
70684;BME280;58263;48.146;11.440;2023-02-13T10:42:15;97627.00;;;3.23;75.16
70684;BME280;58263;48.146;11.440;2023-02-13T10:44:46;97630.53;;;3.33;75.28
70684;BME280;58263;48.146;11.440;2023-02-13T10:47:23;97621.59;;;3.34;75.14
70684;BME280;58263;48.146;11.440;2023-02-13T10:53:07;97628.72;;;3.44;74.79
70684;BME280;58263;48.146;11.440;2023-02-13T11:01:47;97617.41;;;3.61;74.24
70684;BME280;58263;48.146;11.440;2023-02-13T11:04:18;97613.78;;;3.62;73.50
70684;BME280;58263;48.146;11.440;2023-02-13T11:06:57;97615.16;;;3.66;73.75
70684;BME280;58263;48.146;11.440;2023-02-13T11:09:24;97609.31;;;3.72;73.70
70684;BME280;58263;48.146;11.440;2023-02-13T11:11:50;97608.03;;;3.57;73.98
70684;BME280;58263;48.146;11.440;2023-02-13T11:14:25;97602.34;;;3.52;74.39
70684;BME280;58263;48.146;11.440;2023-02-13T11:19:34;97604.00;;;3.53;74.54
70684;BME280;58263;48.146;11.440;2023-02-13T11:22:07;97600.22;;;3.55;74.00
70684;BME280;58263;48.146;11.440;2023-02-13T11:24:33;97609.44;;;3.61;74.32
70684;BME280;58263;48.146;11.440;2023-02-13T11:27:02;97602.19;;;3.63;74.28
70684;BME280;58263;48.146;11.440;2023-02-13T11:29:34;97592.56;;;3.52;74.42
70684;BME280;58263;48.146;11.440;2023-02-13T11:32:21;97592.84;;;3.59;73.95
70684;BME280;58263;48.146;11.440;2023-02-13T11:34:47;97589.22;;;3.60;74.21
70684;BME280;58263;48.146;11.440;2023-02-13T11:37:22;97594.50;;;3.70;74.40
70684;BME280;58263;48.146;11.440;2023-02-13T11:39:50;97591.41;;;3.94;73.20
70684;BME280;58263;48.146;11.440;2023-02-13T11:42:29;97587.22;;;3.92;73.15
70684;BME280;58263;48.146;11.440;2023-02-13T11:45:05;97594.75;;;3.96;73.00
70684;BME280;58263;48.146;11.440;2023-02-13T11:47:33;97593.06;;;3.95;72.88
70684;BME280;58263;48.146;11.440;2023-02-13T11:50:00;97592.31;;;4.13;71.80
70684;BME280;58263;48.146;11.440;2023-02-13T11:52:28;97593.69;;;4.27;71.82
70684;BME280;58263;48.146;11.440;2023-02-13T11:54:58;97590.72;;;4.39;71.25
70684;BME280;58263;48.146;11.440;2023-02-13T11:57:27;97594.94;;;4.22;71.68
70684;BME280;58263;48.146;11.440;2023-02-13T11:59:53;97594.38;;;4.29;71.23
70684;BME280;58263;48.146;11.440;2023-02-13T12:02:21;97589.13;;;4.19;71.51
70684;BME280;58263;48.146;11.440;2023-02-13T12:04:50;97586.19;;;4.50;71.05
70684;BME280;58263;48.146;11.440;2023-02-13T12:07:17;97583.88;;;4.37;70.74
70684;BME280;58263;48.146;11.440;2023-02-13T12:09:46;97590.41;;;4.43;70.81
70684;BME280;58263;48.146;11.440;2023-02-13T12:12:20;97586.22;;;4.40;70.70
70684;BME280;58263;48.146;11.440;2023-02-13T12:14:46;97574.53;;;4.33;70.43
70684;BME280;58263;48.146;11.440;2023-02-13T12:17:22;97583.72;;;4.38;70.35
70684;BME280;58263;48.146;11.440;2023-02-13T12:19:51;97592.88;;;4.54;70.42
70684;BME280;58263;48.146;11.440;2023-02-13T12:27:54;97576.06;;;4.63;70.11
70684;BME280;58263;48.146;11.440;2023-02-13T12:30:51;97577.88;;;4.90;68.85
70684;BME280;58263;48.146;11.440;2023-02-13T12:36:15;97564.84;;;5.15;68.10
70684;BME280;58263;48.146;11.440;2023-02-13T12:52:26;97547.06;;;5.96;65.46
70684;BME280;58263;48.146;11.440;2023-02-13T12:55:04;97544.94;;;6.26;64.29
70684;BME280;58263;48.146;11.440;2023-02-13T13:02:58;97531.63;;;6.69;61.84
70684;BME280;58263;48.146;11.440;2023-02-13T13:10:47;97527.63;;;7.65;60.17
70684;BME280;58263;48.146;11.440;2023-02-13T13:13:20;97528.84;;;8.27;58.27
70684;BME280;58263;48.146;11.440;2023-02-13T13:16:08;97529.72;;;8.11;57.66
70684;BME280;58263;48.146;11.440;2023-02-13T13:18:50;97533.69;;;8.32;56.64
70684;BME280;58263;48.146;11.440;2023-02-13T13:26:47;97528.16;;;8.41;55.74
70684;BME280;58263;48.146;11.440;2023-02-13T13:29:39;97531.84;;;8.32;56.31
70684;BME280;58263;48.146;11.440;2023-02-13T13:32:07;97534.41;;;8.17;56.49
70684;BME280;58263;48.146;11.440;2023-02-13T13:34:38;97531.91;;;8.07;56.97
70684;BME280;58263;48.146;11.440;2023-02-13T13:37:28;97534.59;;;7.99;56.97
70684;BME280;58263;48.146;11.440;2023-02-13T13:40:24;97539.47;;;7.79;57.71
70684;BME280;58263;48.146;11.440;2023-02-13T13:43:02;97544.28;;;7.75;57.76
70684;BME280;58263;48.146;11.440;2023-02-13T13:50:41;97525.78;;;7.57;58.35
70684;BME280;58263;48.146;11.440;2023-02-13T13:53:26;97534.63;;;7.50;58.43
70684;BME280;58263;48.146;11.440;2023-02-13T13:58:22;97543.66;;;7.40;59.04
70684;BME280;58263;48.146;11.440;2023-02-13T14:01:28;97541.63;;;7.34;59.02
70684;BME280;58263;48.146;11.440;2023-02-13T14:03:58;97528.91;;;7.11;59.49
70684;BME280;58263;48.146;11.440;2023-02-13T14:06:26;97538.72;;;7.03;59.55
70684;BME280;58263;48.146;11.440;2023-02-13T14:08:56;97531.88;;;6.92;59.84
70684;BME280;58263;48.146;11.440;2023-02-13T14:13:56;97539.78;;;6.67;60.92
70684;BME280;58263;48.146;11.440;2023-02-13T14:16:43;97531.72;;;6.51;61.08
70684;BME280;58263;48.146;11.440;2023-02-13T14:19:22;97532.41;;;6.53;61.29
70684;BME280;58263;48.146;11.440;2023-02-13T14:21:48;97534.44;;;6.59;60.68
70684;BME280;58263;48.146;11.440;2023-02-13T14:24:17;97533.66;;;6.40;61.65
70684;BME280;58263;48.146;11.440;2023-02-13T14:26:50;97533.66;;;6.40;61.37
70684;BME280;58263;48.146;11.440;2023-02-13T14:29:22;97534.03;;;6.46;61.25
70684;BME280;58263;48.146;11.440;2023-02-13T14:32:13;97534.41;;;6.51;61.04
70684;BME280;58263;48.146;11.440;2023-02-13T14:34:40;97530.75;;;6.52;61.08
70684;BME280;58263;48.146;11.440;2023-02-13T14:37:15;97528.09;;;6.52;60.76
70684;BME280;58263;48.146;11.440;2023-02-13T14:40:27;97531.75;;;6.59;60.50
70684;BME280;58263;48.146;11.440;2023-02-13T14:42:57;97523.41;;;6.54;60.32
70684;BME280;58263;48.146;11.440;2023-02-13T14:45:28;97520.91;;;6.52;60.39
70684;BME280;58263;48.146;11.440;2023-02-13T14:47:57;97529.25;;;6.57;60.36
70684;BME280;58263;48.146;11.440;2023-02-13T14:50:46;97530.53;;;6.45;60.64
70684;BME280;58263;48.146;11.440;2023-02-13T14:53:20;97523.34;;;6.37;60.50
70684;BME280;58263;48.146;11.440;2023-02-13T14:55:54;97526.22;;;6.44;60.38
70684;BME280;58263;48.146;11.440;2023-02-13T14:58:27;97526.41;;;6.16;60.95
70684;BME280;58263;48.146;11.440;2023-02-13T15:00:59;97518.50;;;6.06;61.39
70684;BME280;58263;48.146;11.440;2023-02-13T15:03:36;97531.03;;;5.88;62.12
70684;BME280;58263;48.146;11.440;2023-02-13T15:06:12;97527.34;;;5.89;62.12
70684;BME280;58263;48.146;11.440;2023-02-13T15:08:47;97528.66;;;5.85;62.31